createdAt,value
2022-09-12T00:02:22.134Z,0.93
2022-09-12T00:04:52.769Z,0.98
2022-09-12T00:07:23.310Z,1.08
2022-09-12T00:09:53.937Z,1.85
2022-09-12T00:12:24.590Z,1.20
2022-09-12T00:14:55.056Z,1.02
2022-09-12T00:17:25.501Z,1.27
2022-09-12T00:19:56.424Z,0.57
2022-09-12T00:22:26.955Z,0.75
2022-09-12T00:24:57.123Z,0.98
2022-09-12T00:27:27.723Z,1.05
2022-09-12T00:32:27.993Z,1.00
2022-09-12T00:34:58.340Z,0.75
2022-09-12T00:37:28.709Z,0.80
2022-09-12T00:39:59.104Z,0.93
2022-09-12T00:42:29.560Z,1.00
2022-09-12T00:44:59.972Z,1.13
2022-09-12T00:47:33.473Z,0.65
2022-09-12T00:50:16.286Z,1.73
2022-09-12T00:53:04.595Z,1.30
2022-09-12T00:55:41.274Z,2.10
2022-09-12T00:58:24.068Z,1.65
2022-09-12T01:00:54.846Z,0.90
2022-09-12T01:03:26.657Z,2.10
2022-09-12T01:06:17.397Z,1.35
2022-09-12T01:08:50.026Z,1.02
2022-09-12T01:11:22.024Z,1.40
2022-09-12T01:13:53.345Z,0.98
2022-09-12T01:16:24.063Z,2.05
2022-09-12T01:19:22.719Z,1.17
2022-09-12T01:21:59.022Z,0.73
2022-09-12T01:24:45.042Z,1.73
2022-09-12T01:27:28.312Z,0.70
2022-09-12T01:30:08.157Z,0.75
2022-09-12T01:32:38.659Z,1.42
2022-09-12T01:35:45.334Z,1.02
2022-09-12T01:38:29.502Z,1.42
2022-09-12T01:41:18.287Z,1.00
2022-09-12T01:44:11.515Z,0.50
2022-09-12T01:46:56.818Z,1.13
2022-09-12T01:50:02.043Z,1.48
2022-09-12T01:52:56.364Z,1.38
2022-09-12T01:55:32.950Z,1.08
2022-09-12T01:58:12.431Z,0.95
2022-09-12T02:01:16.824Z,1.88
2022-09-12T02:04:02.899Z,0.82
2022-09-12T02:06:45.564Z,0.93
2022-09-12T02:09:24.485Z,1.50
2022-09-12T02:12:00.307Z,1.25
2022-09-12T02:14:35.605Z,1.27
2022-09-12T02:17:11.933Z,0.90
2022-09-12T02:19:49.429Z,1.20
2022-09-12T02:22:24.336Z,0.80
2022-09-12T02:25:00.811Z,0.88
2022-09-12T02:27:31.136Z,1.45
2022-09-12T02:30:02.247Z,1.00
2022-09-12T02:32:39.468Z,0.65
2022-09-12T02:35:23.050Z,0.68
2022-09-12T02:38:12.071Z,0.70
2022-09-12T02:40:43.276Z,1.58
2022-09-12T02:43:13.796Z,0.88
2022-09-12T02:48:32.178Z,0.70
2022-09-12T02:51:04.080Z,1.00
2022-09-12T02:53:35.182Z,1.13
2022-09-12T02:56:10.386Z,1.20
2022-09-12T02:58:40.919Z,0.68
2022-09-12T03:01:26.830Z,0.95
2022-09-12T03:04:05.708Z,0.88
2022-09-12T03:06:39.851Z,0.55
2022-09-12T03:09:30.883Z,1.15
2022-09-12T03:12:22.717Z,1.20
2022-09-12T03:15:02.856Z,1.05
2022-09-12T03:18:11.579Z,1.30
2022-09-12T03:20:53.096Z,1.10
2022-09-12T03:23:37.224Z,0.90
2022-09-12T03:26:21.448Z,1.10
2022-09-12T03:28:53.071Z,1.35
2022-09-12T03:31:23.996Z,0.93
2022-09-12T03:33:54.656Z,1.65
2022-09-12T03:38:56.409Z,2.08
2022-09-12T03:41:26.884Z,1.50
2022-09-12T03:43:58.362Z,1.02
2022-09-12T03:46:28.736Z,1.20
2022-09-12T03:48:59.312Z,1.00
2022-09-12T03:54:00.502Z,1.13
2022-09-12T03:56:30.876Z,1.70
2022-09-12T03:59:01.658Z,1.05
2022-09-12T04:01:32.198Z,1.35
2022-09-12T04:04:02.642Z,1.50
2022-09-12T04:06:33.125Z,1.00
2022-09-12T04:09:03.934Z,1.05
2022-09-12T04:11:34.326Z,1.00
2022-09-12T04:14:04.732Z,1.50
2022-09-12T04:16:35.189Z,1.23
2022-09-12T04:19:06.350Z,0.98
2022-09-12T04:21:36.719Z,1.15
2022-09-12T04:24:07.466Z,1.60
2022-09-12T04:26:37.839Z,1.30
2022-09-12T04:29:08.378Z,1.02
2022-09-12T04:34:09.199Z,1.20
2022-09-12T04:36:40.139Z,1.27
2022-09-12T04:39:11.883Z,1.52
2022-09-12T04:41:43.398Z,0.63
2022-09-12T04:44:16.033Z,0.80
2022-09-12T04:46:48.457Z,1.00
2022-09-12T04:49:20.648Z,1.17
2022-09-12T04:51:51.085Z,1.00
2022-09-12T04:54:22.049Z,1.00
2022-09-12T04:56:53.886Z,1.08
2022-09-12T04:59:25.526Z,1.27
2022-09-12T05:01:56.072Z,1.15
2022-09-12T05:04:26.685Z,0.75
2022-09-12T05:09:26.927Z,0.90
2022-09-12T05:14:36.501Z,0.70
2022-09-12T05:17:07.437Z,1.48
2022-09-12T05:19:38.314Z,1.60
2022-09-12T05:22:08.734Z,0.95
2022-09-12T05:24:41.123Z,1.40
2022-09-12T05:27:11.804Z,2.03
2022-09-12T05:32:13.756Z,1.70
2022-09-12T05:34:44.517Z,1.95
2022-09-12T05:37:15.004Z,1.45
2022-09-12T05:39:45.504Z,1.13
2022-09-12T05:42:16.627Z,2.25
2022-09-12T05:44:46.960Z,2.05
2022-09-12T05:47:18.597Z,1.52
2022-09-12T05:49:49.491Z,0.88
2022-09-12T05:52:20.012Z,0.98
2022-09-12T05:54:50.619Z,0.95
2022-09-12T05:59:51.570Z,1.52
2022-09-12T06:02:22.236Z,1.05
2022-09-12T06:04:52.833Z,0.82
2022-09-12T06:07:23.209Z,0.80
2022-09-12T06:09:53.713Z,0.65
2022-09-12T06:12:24.164Z,1.00
2022-09-12T06:14:55.451Z,1.05
2022-09-12T06:17:25.892Z,1.05
2022-09-12T06:19:56.726Z,0.52
2022-09-12T06:22:27.075Z,1.30
2022-09-12T06:24:58.094Z,1.73
2022-09-12T06:27:28.554Z,0.93
2022-09-12T06:29:59.104Z,0.68
2022-09-12T06:32:32.976Z,1.02
2022-09-12T06:35:03.829Z,0.75
2022-09-12T06:37:34.308Z,0.85
2022-09-12T06:40:04.984Z,0.77
2022-09-12T06:42:35.364Z,0.60
2022-09-12T06:45:06.267Z,0.75
2022-09-12T06:47:36.670Z,0.82
2022-09-12T06:50:07.556Z,1.27
2022-09-12T06:52:37.938Z,0.93
2022-09-12T06:55:08.651Z,0.88
2022-09-12T06:57:40.148Z,1.02
2022-09-12T07:00:11.973Z,0.77
2022-09-12T07:02:42.496Z,0.82
2022-09-12T07:05:12.972Z,1.10
2022-09-12T07:07:43.409Z,0.60
2022-09-12T07:10:13.889Z,0.73
2022-09-12T07:12:44.277Z,1.10
2022-09-12T07:15:14.932Z,1.00
2022-09-12T07:17:45.386Z,0.63
2022-09-12T07:20:15.858Z,0.75
2022-09-12T07:22:46.464Z,1.42
2022-09-12T07:27:51.014Z,1.15
2022-09-12T07:30:21.831Z,0.88
2022-09-12T07:32:58.051Z,1.40
2022-09-12T07:35:28.686Z,2.42
2022-09-12T07:40:28.732Z,2.88
2022-09-12T07:42:59.143Z,2.25
2022-09-12T07:45:29.591Z,2.58
2022-09-12T07:48:00.172Z,2.20
2022-09-12T07:53:00.220Z,2.05
2022-09-12T07:55:31.135Z,2.80
2022-09-12T07:58:01.621Z,2.50
2022-09-12T08:00:37.580Z,1.83
2022-09-12T08:03:08.631Z,2.25
2022-09-12T08:05:39.064Z,2.25
2022-09-12T08:08:09.763Z,2.58
2022-09-12T08:10:40.148Z,1.95
2022-09-12T08:13:10.952Z,1.27
2022-09-12T08:15:41.481Z,1.40
2022-09-12T08:18:11.853Z,1.92
2022-09-12T08:20:42.291Z,1.70
2022-09-12T08:23:12.630Z,1.05
2022-09-12T08:25:43.194Z,1.70
2022-09-12T08:30:43.373Z,1.30
2022-09-12T08:33:13.875Z,1.50
2022-09-12T08:35:44.301Z,1.40
2022-09-12T08:38:14.677Z,1.38
2022-09-12T08:43:32.309Z,0.80
2022-09-12T08:46:13.486Z,0.77
2022-09-12T08:48:47.178Z,0.82
2022-09-12T08:51:20.818Z,1.08
2022-09-12T08:53:55.876Z,0.95
2022-09-12T08:56:31.669Z,1.30
2022-09-12T08:59:02.250Z,0.70
2022-09-12T09:01:44.310Z,0.95
2022-09-12T09:04:36.262Z,1.05
2022-09-12T09:07:09.815Z,1.17
2022-09-12T09:10:05.476Z,0.63
2022-09-12T09:13:08.147Z,0.70
2022-09-12T09:15:45.983Z,0.65
2022-09-12T09:18:26.721Z,1.10
2022-09-12T09:21:16.605Z,0.77
2022-09-12T09:23:52.516Z,1.55
2022-09-12T09:26:50.526Z,0.63
2022-09-12T09:29:30.432Z,0.65
2022-09-12T09:32:05.278Z,0.77
2022-09-12T09:34:35.672Z,0.82
2022-09-12T09:37:23.635Z,1.13
2022-09-12T09:40:07.855Z,1.40
2022-09-12T09:42:58.337Z,0.82
2022-09-12T09:45:32.203Z,0.80
2022-09-12T09:48:36.688Z,0.75
2022-09-12T09:51:10.608Z,1.25
2022-09-12T09:53:56.202Z,1.17
2022-09-12T09:56:46.331Z,0.90
2022-09-12T09:59:31.528Z,1.42
2022-09-12T10:02:28.101Z,1.23
2022-09-12T10:05:01.040Z,1.48
2022-09-12T10:07:31.456Z,1.40
2022-09-12T10:10:20.462Z,1.23
2022-09-12T10:12:51.823Z,3.42
2022-09-12T10:15:27.570Z,3.63
2022-09-12T10:17:58.486Z,2.88
2022-09-12T10:20:34.651Z,1.48
2022-09-12T10:23:20.937Z,1.63
2022-09-12T10:25:57.819Z,1.75
2022-09-12T10:28:44.981Z,1.70
2022-09-12T10:31:30.717Z,1.50
2022-09-12T10:34:02.665Z,1.58
2022-09-12T10:36:41.776Z,1.50
2022-09-12T10:39:20.133Z,2.17
2022-09-12T10:41:50.698Z,2.20
2022-09-12T10:47:02.192Z,2.88
2022-09-12T10:49:41.614Z,2.10
2022-09-12T10:52:26.380Z,2.42
2022-09-12T10:54:56.955Z,1.95
2022-09-12T11:00:19.089Z,2.25
2022-09-12T11:03:26.139Z,2.67
2022-09-12T11:06:03.778Z,2.53
2022-09-12T11:08:42.942Z,3.67
2022-09-12T11:11:19.967Z,2.50
2022-09-12T11:13:57.464Z,3.78
2022-09-12T11:16:45.269Z,2.95
2022-09-12T11:19:56.169Z,3.22
2022-09-12T11:22:47.128Z,2.22
2022-09-12T11:25:31.344Z,2.60
2022-09-12T11:28:38.385Z,3.42
2022-09-12T11:31:37.750Z,2.45
2022-09-12T11:34:12.689Z,2.83
2022-09-12T11:37:00.350Z,2.42
2022-09-12T11:39:37.675Z,3.28
2022-09-12T11:42:18.322Z,1.98
2022-09-12T11:45:11.936Z,2.80
2022-09-12T11:47:43.164Z,3.72
2022-09-12T11:50:45.561Z,2.80
2022-09-12T11:53:27.989Z,1.83
2022-09-12T11:56:10.856Z,3.05
2022-09-12T11:58:44.264Z,4.15
2022-09-12T12:01:23.285Z,2.85
2022-09-12T12:03:56.723Z,2.88
2022-09-12T12:06:34.654Z,3.75
2022-09-12T12:09:06.954Z,2.65
2022-09-12T12:12:09.434Z,2.90
2022-09-12T12:14:48.450Z,3.85
2022-09-12T12:17:22.616Z,4.32
2022-09-12T12:20:08.648Z,4.35
2022-09-12T12:22:39.773Z,4.13
2022-09-12T12:25:19.600Z,4.20
2022-09-12T12:27:56.550Z,5.13
2022-09-12T12:30:34.774Z,4.95
2022-09-12T12:33:47.562Z,3.40
2022-09-12T12:36:47.621Z,4.43
2022-09-12T12:39:36.174Z,4.22
2022-09-12T12:42:06.716Z,5.20
2022-09-12T12:47:28.756Z,4.57
2022-09-12T12:50:13.242Z,4.78
2022-09-12T12:52:57.057Z,4.70
2022-09-12T12:55:46.048Z,4.40
2022-09-12T12:58:32.474Z,4.57
2022-09-12T13:01:11.967Z,4.32
2022-09-12T13:04:02.552Z,3.70
2022-09-12T13:06:36.347Z,4.07
2022-09-12T13:09:20.648Z,3.97
2022-09-12T13:12:01.091Z,4.18
2022-09-12T13:14:45.019Z,4.15
2022-09-12T13:17:38.385Z,3.28
2022-09-12T13:20:27.867Z,4.07
2022-09-12T13:23:00.384Z,3.60
2022-09-12T13:25:32.789Z,4.78
2022-09-12T13:28:14.475Z,4.07
2022-09-12T13:30:49.345Z,3.75
2022-09-12T13:33:32.226Z,3.70
2022-09-12T13:38:35.431Z,3.63
2022-09-12T13:41:31.391Z,4.55
2022-09-12T13:44:03.791Z,4.05
2022-09-12T13:46:36.291Z,3.63
2022-09-12T13:49:29.674Z,4.38
2022-09-12T13:52:09.776Z,3.83
2022-09-12T13:54:41.473Z,4.10
2022-09-12T13:57:31.967Z,3.83
2022-09-12T14:00:09.190Z,4.55
2022-09-12T14:02:42.344Z,3.95
2022-09-12T14:05:22.596Z,3.75
2022-09-12T14:08:05.462Z,4.40
2022-09-12T14:10:40.498Z,4.55
2022-09-12T14:13:28.391Z,4.22
2022-09-12T14:16:01.028Z,4.65
2022-09-12T14:18:38.369Z,4.63
2022-09-12T14:21:14.278Z,4.50
2022-09-12T14:23:49.186Z,3.20
2022-09-12T14:26:20.223Z,3.58
2022-09-12T14:28:50.671Z,3.83
2022-09-12T14:31:25.437Z,3.55
2022-09-12T14:34:13.672Z,3.60
2022-09-12T14:36:56.604Z,3.42
2022-09-12T14:39:27.348Z,3.35
2022-09-12T14:42:13.625Z,3.95
2022-09-12T14:45:07.698Z,3.83
2022-09-12T14:47:42.564Z,3.92
2022-09-12T14:50:22.028Z,3.28
2022-09-12T14:53:20.889Z,2.72
2022-09-12T14:56:15.708Z,2.50
2022-09-12T14:58:47.617Z,2.28
2022-09-12T15:01:18.389Z,2.45
2022-09-12T15:03:53.399Z,2.30
2022-09-12T15:06:37.954Z,2.08
2022-09-12T15:09:14.719Z,2.65
2022-09-12T15:11:45.084Z,2.30
2022-09-12T15:14:17.046Z,2.13
2022-09-12T15:16:47.590Z,1.92
2022-09-12T15:19:20.025Z,2.78
2022-09-12T15:21:56.067Z,1.85
2022-09-12T15:24:30.088Z,2.45
2022-09-12T15:27:00.701Z,2.30
2022-09-12T15:29:31.586Z,2.85
2022-09-12T15:32:02.017Z,2.20
2022-09-12T15:34:32.486Z,2.08
2022-09-12T15:37:03.041Z,1.75
2022-09-12T15:39:33.497Z,1.80
2022-09-12T15:42:03.835Z,2.80
2022-09-12T15:44:34.231Z,2.40
2022-09-12T15:47:04.675Z,2.50
2022-09-12T15:49:35.277Z,2.03
2022-09-12T15:52:05.742Z,2.17
2022-09-12T15:57:07.680Z,1.83
2022-09-12T16:02:08.337Z,2.13
2022-09-12T16:04:38.772Z,2.53
2022-09-12T16:07:09.141Z,1.55
2022-09-12T16:09:39.828Z,1.77
2022-09-12T16:12:11.008Z,2.53
2022-09-12T16:14:41.930Z,1.83
2022-09-12T16:17:15.586Z,2.05
2022-09-12T16:19:46.007Z,2.10
2022-09-12T16:22:16.468Z,1.90
2022-09-12T16:24:46.886Z,2.20
2022-09-12T16:27:17.328Z,2.53
2022-09-12T16:32:17.741Z,1.83
2022-09-12T16:34:48.234Z,1.63
2022-09-12T16:37:19.497Z,2.25
2022-09-12T16:39:51.173Z,2.20
2022-09-12T16:42:21.717Z,1.98
2022-09-12T16:44:52.143Z,2.00
2022-09-12T16:47:22.703Z,1.95
2022-09-12T16:49:53.206Z,1.70
2022-09-12T16:52:24.216Z,1.92
2022-09-12T16:54:54.863Z,2.42
2022-09-12T16:57:25.343Z,1.98
2022-09-12T16:59:56.089Z,1.83
2022-09-12T17:02:26.603Z,2.03
2022-09-12T17:04:57.315Z,2.15
2022-09-12T17:07:27.685Z,2.58
2022-09-12T17:09:58.458Z,3.22
2022-09-12T17:12:28.889Z,1.95
2022-09-12T17:15:00.377Z,2.47
2022-09-12T17:17:30.788Z,2.30
2022-09-12T17:20:01.404Z,2.40
2022-09-12T17:22:31.863Z,2.25
2022-09-12T17:25:02.272Z,2.28
2022-09-12T17:27:32.636Z,2.70
2022-09-12T17:30:03.064Z,2.20
2022-09-12T17:32:34.000Z,2.05
2022-09-12T17:35:04.601Z,2.00
2022-09-12T17:37:37.636Z,3.28
2022-09-12T17:40:08.572Z,2.78
2022-09-12T17:42:38.996Z,2.55
2022-09-12T17:47:42.382Z,2.70
2022-09-12T17:50:30.787Z,2.90
2022-09-12T17:53:01.989Z,2.80
2022-09-12T17:55:35.452Z,2.72
2022-09-12T17:58:06.284Z,2.60
2022-09-12T18:00:55.075Z,2.67
2022-09-12T18:03:26.215Z,2.20
2022-09-12T18:05:58.000Z,3.42
2022-09-12T18:08:28.441Z,3.00
2022-09-12T18:11:08.881Z,2.70
2022-09-12T18:13:39.407Z,2.90
2022-09-12T18:16:13.117Z,2.80
2022-09-12T18:18:43.802Z,2.97
2022-09-12T18:21:15.074Z,2.90
2022-09-12T18:23:45.468Z,3.28
2022-09-12T18:28:46.793Z,2.20
2022-09-12T18:31:23.568Z,2.90
2022-09-12T18:33:54.405Z,2.65
2022-09-12T18:36:25.368Z,3.00
2022-09-12T18:38:56.202Z,2.85
2022-09-12T18:41:27.399Z,2.88
2022-09-12T18:43:59.799Z,3.33
2022-09-12T18:46:32.093Z,2.58
2022-09-12T18:49:03.460Z,2.47
2022-09-12T18:51:37.177Z,3.15
2022-09-12T18:54:12.570Z,2.72
2022-09-12T18:56:45.282Z,2.97
2022-09-12T18:59:16.091Z,3.28
2022-09-12T19:01:46.846Z,3.15
2022-09-12T19:04:17.939Z,3.15
2022-09-12T19:06:50.540Z,3.33
2022-09-12T19:09:25.451Z,3.78
2022-09-12T19:11:56.183Z,3.22
2022-09-12T19:14:28.224Z,3.72
2022-09-12T19:16:59.066Z,3.85
2022-09-12T19:19:29.556Z,4.07
2022-09-12T19:22:00.012Z,3.55
2022-09-12T19:24:30.641Z,3.53
2022-09-12T19:27:01.175Z,3.90
2022-09-12T19:29:31.689Z,3.70
2022-09-12T19:32:02.151Z,3.17
2022-09-12T19:34:32.556Z,4.00
2022-09-12T19:37:02.629Z,3.30
2022-09-12T19:42:02.711Z,3.95
2022-09-12T19:47:02.586Z,4.00
2022-09-12T19:49:32.940Z,4.70
2022-09-12T19:54:33.342Z,3.40
2022-09-12T19:57:03.819Z,3.97
2022-09-12T19:59:34.173Z,3.40
2022-09-12T20:04:34.875Z,3.72
2022-09-12T20:07:05.776Z,3.45
2022-09-12T20:09:37.270Z,3.78
2022-09-12T20:12:07.985Z,3.28
2022-09-12T20:14:38.448Z,3.95
2022-09-12T20:17:09.772Z,3.65
2022-09-12T20:19:40.402Z,3.80
2022-09-12T20:22:10.743Z,4.65
2022-09-12T20:27:10.729Z,4.38
2022-09-12T20:29:41.166Z,3.70
2022-09-12T20:32:12.085Z,4.78
2022-09-12T20:34:42.428Z,4.45
2022-09-12T20:37:12.910Z,4.68
2022-09-12T20:39:45.939Z,3.88
2022-09-12T20:42:19.752Z,4.68
2022-09-12T20:44:50.103Z,3.78
2022-09-12T20:47:20.544Z,3.92
2022-09-12T20:49:50.995Z,4.55
2022-09-12T20:52:21.531Z,4.13
2022-09-12T20:54:51.652Z,5.65
2022-09-12T20:59:51.820Z,4.25
2022-09-12T21:02:22.302Z,4.07
2022-09-12T21:04:52.644Z,4.00
2022-09-12T21:09:52.719Z,3.90
2022-09-12T21:12:24.267Z,4.70
2022-09-12T21:14:54.628Z,4.57
2022-09-12T21:19:55.080Z,10.18
2022-09-12T21:24:55.348Z,34.55
2022-09-12T21:27:25.812Z,15.80
2022-09-12T21:29:57.056Z,5.70
2022-09-12T21:32:28.042Z,4.72
2022-09-12T21:34:58.801Z,4.47
2022-09-12T21:37:29.465Z,4.38
2022-09-12T21:40:00.580Z,5.10
2022-09-12T21:42:31.063Z,5.80
2022-09-12T21:45:01.437Z,5.68
2022-09-12T21:47:32.204Z,9.55
2022-09-12T21:50:02.724Z,9.35
2022-09-12T21:52:33.039Z,10.00
2022-09-12T21:55:06.342Z,5.72
2022-09-12T21:57:37.786Z,5.80
2022-09-12T22:00:13.291Z,5.10
2022-09-12T22:02:47.635Z,5.63
2022-09-12T22:05:19.130Z,4.90
2022-09-12T22:07:51.406Z,6.07
2022-09-12T22:10:22.095Z,6.13
2022-09-12T22:12:52.809Z,5.68
2022-09-12T22:15:40.208Z,5.68
2022-09-12T22:18:11.895Z,7.13
2022-09-12T22:20:42.357Z,7.25
2022-09-12T22:23:32.869Z,6.50
2022-09-12T22:26:05.738Z,6.22
2022-09-12T22:28:36.878Z,6.35
2022-09-12T22:31:08.122Z,6.25
2022-09-12T22:33:39.047Z,6.55
2022-09-12T22:36:11.233Z,6.60
2022-09-12T22:38:47.259Z,6.60
2022-09-12T22:41:17.891Z,7.68
2022-09-12T22:43:48.386Z,9.50
2022-09-12T22:46:18.906Z,10.88
2022-09-12T22:48:49.669Z,9.10
2022-09-12T22:51:20.454Z,9.63
2022-09-12T22:53:51.242Z,10.00
2022-09-12T22:56:21.681Z,14.55
2022-09-12T22:58:52.314Z,13.18
2022-09-12T23:01:33.137Z,11.40
2022-09-12T23:04:05.211Z,10.18
2022-09-12T23:06:38.847Z,8.40
2022-09-12T23:09:09.291Z,9.68
2022-09-12T23:11:41.372Z,9.80
2022-09-12T23:14:11.963Z,8.02
2022-09-12T23:16:43.432Z,6.55
2022-09-12T23:19:15.593Z,7.35
2022-09-12T23:21:51.707Z,7.85
2022-09-12T23:24:22.708Z,8.82
2022-09-12T23:26:53.016Z,8.48
2022-09-12T23:29:23.576Z,7.97
2022-09-12T23:31:54.444Z,8.65
2022-09-12T23:34:25.958Z,10.02
2022-09-12T23:36:57.754Z,10.32
2022-09-12T23:39:28.383Z,9.27
2022-09-12T23:42:02.069Z,11.18
2022-09-12T23:44:32.500Z,8.90
2022-09-12T23:49:32.614Z,8.95
2022-09-12T23:52:03.655Z,9.95
2022-09-12T23:54:34.197Z,9.38
2022-09-12T23:57:05.880Z,10.07
2022-09-12T23:59:36.667Z,8.45
